sensor_id;sensor_type;location;lat;lon;timestamp;P1;durP1;ratioP1;P2;durP2;ratioP2
18933;SDS011;9599;53.706;10.384;2023-06-10T00:02:37;1999.90;;;999.90;;
18933;SDS011;9599;53.706;10.384;2023-06-10T00:05:07;1999.90;;;999.90;;
18933;SDS011;9599;53.706;10.384;2023-06-10T00:07:36;1999.90;;;999.90;;
18933;SDS011;9599;53.706;10.384;2023-06-10T00:10:05;1999.90;;;999.90;;
18933;SDS011;9599;53.706;10.384;2023-06-10T00:12:33;1999.90;;;999.90;;
18933;SDS011;9599;53.706;10.384;2023-06-10T00:15:03;1999.90;;;999.90;;
18933;SDS011;9599;53.706;10.384;2023-06-10T00:17:33;1999.90;;;999.90;;
18933;SDS011;9599;53.706;10.384;2023-06-10T00:20:06;1999.90;;;999.90;;
18933;SDS011;9599;53.706;10.384;2023-06-10T00:22:38;1999.90;;;999.90;;
18933;SDS011;9599;53.706;10.384;2023-06-10T00:25:08;1999.90;;;999.90;;
18933;SDS011;9599;53.706;10.384;2023-06-10T00:27:37;1999.90;;;999.90;;
18933;SDS011;9599;53.706;10.384;2023-06-10T00:30:05;1999.90;;;999.90;;
18933;SDS011;9599;53.706;10.384;2023-06-10T00:32:34;1999.90;;;999.90;;
18933;SDS011;9599;53.706;10.384;2023-06-10T00:35:03;1999.90;;;999.90;;
18933;SDS011;9599;53.706;10.384;2023-06-10T00:37:34;1999.90;;;999.90;;
18933;SDS011;9599;53.706;10.384;2023-06-10T00:40:02;1999.90;;;999.90;;
18933;SDS011;9599;53.706;10.384;2023-06-10T00:42:31;1999.90;;;999.90;;
18933;SDS011;9599;53.706;10.384;2023-06-10T00:44:59;1999.90;;;999.90;;
18933;SDS011;9599;53.706;10.384;2023-06-10T00:47:28;1999.90;;;999.90;;
18933;SDS011;9599;53.706;10.384;2023-06-10T00:49:56;1999.90;;;999.90;;
18933;SDS011;9599;53.706;10.384;2023-06-10T00:52:25;1999.90;;;999.90;;
18933;SDS011;9599;53.706;10.384;2023-06-10T00:54:57;1999.90;;;999.90;;
18933;SDS011;9599;53.706;10.384;2023-06-10T00:57:26;1999.90;;;999.90;;
18933;SDS011;9599;53.706;10.384;2023-06-10T00:59:55;1999.90;;;999.90;;
18933;SDS011;9599;53.706;10.384;2023-06-10T01:02:25;1999.90;;;999.90;;
18933;SDS011;9599;53.706;10.384;2023-06-10T01:04:57;1999.90;;;999.90;;
18933;SDS011;9599;53.706;10.384;2023-06-10T01:07:28;1999.90;;;999.90;;
18933;SDS011;9599;53.706;10.384;2023-06-10T01:10:04;1999.90;;;999.90;;
18933;SDS011;9599;53.706;10.384;2023-06-10T01:12:38;1999.90;;;999.90;;
18933;SDS011;9599;53.706;10.384;2023-06-10T01:15:15;1999.90;;;999.90;;
18933;SDS011;9599;53.706;10.384;2023-06-10T01:17:57;1999.90;;;999.90;;
18933;SDS011;9599;53.706;10.384;2023-06-10T01:20:29;1999.90;;;999.90;;
18933;SDS011;9599;53.706;10.384;2023-06-10T01:23:00;1999.90;;;999.90;;
18933;SDS011;9599;53.706;10.384;2023-06-10T01:25:31;1999.90;;;999.90;;
18933;SDS011;9599;53.706;10.384;2023-06-10T01:28:03;1999.90;;;999.90;;
18933;SDS011;9599;53.706;10.384;2023-06-10T01:30:37;1999.90;;;999.90;;
18933;SDS011;9599;53.706;10.384;2023-06-10T01:33:12;1999.90;;;999.90;;
18933;SDS011;9599;53.706;10.384;2023-06-10T01:35:45;1999.90;;;999.90;;
18933;SDS011;9599;53.706;10.384;2023-06-10T01:38:16;1999.90;;;999.90;;
18933;SDS011;9599;53.706;10.384;2023-06-10T01:40:48;1999.90;;;999.90;;
18933;SDS011;9599;53.706;10.384;2023-06-10T01:43:18;1999.90;;;999.90;;
18933;SDS011;9599;53.706;10.384;2023-06-10T01:45:47;1999.90;;;999.90;;
18933;SDS011;9599;53.706;10.384;2023-06-10T01:48:15;1999.90;;;999.90;;
18933;SDS011;9599;53.706;10.384;2023-06-10T01:50:43;1999.90;;;999.90;;
18933;SDS011;9599;53.706;10.384;2023-06-10T01:53:11;1999.90;;;999.90;;
18933;SDS011;9599;53.706;10.384;2023-06-10T01:55:40;1999.90;;;999.90;;
18933;SDS011;9599;53.706;10.384;2023-06-10T01:58:08;1999.90;;;999.90;;
18933;SDS011;9599;53.706;10.384;2023-06-10T02:00:36;1999.90;;;999.90;;
18933;SDS011;9599;53.706;10.384;2023-06-10T02:03:04;1999.90;;;999.90;;
18933;SDS011;9599;53.706;10.384;2023-06-10T02:05:32;1999.90;;;999.90;;
18933;SDS011;9599;53.706;10.384;2023-06-10T02:08:00;1999.90;;;999.90;;
18933;SDS011;9599;53.706;10.384;2023-06-10T02:10:28;1999.90;;;999.90;;
18933;SDS011;9599;53.706;10.384;2023-06-10T02:12:58;1999.90;;;999.90;;
18933;SDS011;9599;53.706;10.384;2023-06-10T02:15:27;1999.90;;;999.90;;
18933;SDS011;9599;53.706;10.384;2023-06-10T02:17:55;1999.90;;;999.90;;
18933;SDS011;9599;53.706;10.384;2023-06-10T02:20:24;1999.90;;;999.90;;
18933;SDS011;9599;53.706;10.384;2023-06-10T02:22:52;1999.90;;;999.90;;
18933;SDS011;9599;53.706;10.384;2023-06-10T02:25:20;1999.90;;;999.90;;
18933;SDS011;9599;53.706;10.384;2023-06-10T02:27:49;1999.90;;;999.90;;
18933;SDS011;9599;53.706;10.384;2023-06-10T02:30:18;1999.90;;;999.90;;
18933;SDS011;9599;53.706;10.384;2023-06-10T02:32:46;1999.90;;;999.90;;
18933;SDS011;9599;53.706;10.384;2023-06-10T02:35:17;1999.90;;;999.90;;
18933;SDS011;9599;53.706;10.384;2023-06-10T02:37:45;1999.90;;;999.90;;
18933;SDS011;9599;53.706;10.384;2023-06-10T02:40:13;1999.90;;;999.90;;
18933;SDS011;9599;53.706;10.384;2023-06-10T02:42:41;1999.90;;;999.90;;
18933;SDS011;9599;53.706;10.384;2023-06-10T02:45:10;1999.90;;;999.90;;
18933;SDS011;9599;53.706;10.384;2023-06-10T02:47:42;1999.90;;;999.90;;
18933;SDS011;9599;53.706;10.384;2023-06-10T02:50:11;1999.90;;;999.90;;
18933;SDS011;9599;53.706;10.384;2023-06-10T02:52:50;1999.90;;;999.90;;
18933;SDS011;9599;53.706;10.384;2023-06-10T02:55:18;1999.90;;;999.90;;
18933;SDS011;9599;53.706;10.384;2023-06-10T02:57:53;1999.90;;;999.90;;
18933;SDS011;9599;53.706;10.384;2023-06-10T03:00:22;1999.90;;;999.90;;
18933;SDS011;9599;53.706;10.384;2023-06-10T03:02:52;1999.90;;;999.90;;
18933;SDS011;9599;53.706;10.384;2023-06-10T03:05:30;1999.90;;;999.90;;
18933;SDS011;9599;53.706;10.384;2023-06-10T03:08:02;1999.90;;;999.90;;
18933;SDS011;9599;53.706;10.384;2023-06-10T03:10:33;1999.90;;;999.90;;
18933;SDS011;9599;53.706;10.384;2023-06-10T03:13:02;1999.90;;;999.90;;
18933;SDS011;9599;53.706;10.384;2023-06-10T03:15:31;1999.90;;;999.90;;
18933;SDS011;9599;53.706;10.384;2023-06-10T03:18:08;1999.90;;;999.90;;
18933;SDS011;9599;53.706;10.384;2023-06-10T03:20:38;1999.90;;;999.90;;
18933;SDS011;9599;53.706;10.384;2023-06-10T03:23:08;1999.90;;;999.90;;
18933;SDS011;9599;53.706;10.384;2023-06-10T03:25:39;1999.90;;;999.90;;
18933;SDS011;9599;53.706;10.384;2023-06-10T03:28:10;1999.90;;;999.90;;
18933;SDS011;9599;53.706;10.384;2023-06-10T03:30:38;1999.90;;;999.90;;
18933;SDS011;9599;53.706;10.384;2023-06-10T03:33:06;1999.90;;;999.90;;
18933;SDS011;9599;53.706;10.384;2023-06-10T03:35:36;1999.90;;;999.90;;
18933;SDS011;9599;53.706;10.384;2023-06-10T03:38:05;1999.90;;;999.90;;
18933;SDS011;9599;53.706;10.384;2023-06-10T03:40:33;1999.90;;;999.90;;
18933;SDS011;9599;53.706;10.384;2023-06-10T03:43:01;1999.90;;;999.90;;
18933;SDS011;9599;53.706;10.384;2023-06-10T03:45:30;1999.90;;;999.90;;
18933;SDS011;9599;53.706;10.384;2023-06-10T03:47:59;1999.90;;;999.90;;
18933;SDS011;9599;53.706;10.384;2023-06-10T03:50:37;1999.90;;;999.90;;
18933;SDS011;9599;53.706;10.384;2023-06-10T03:53:05;1999.90;;;999.90;;
18933;SDS011;9599;53.706;10.384;2023-06-10T03:55:34;1999.90;;;999.90;;
18933;SDS011;9599;53.706;10.384;2023-06-10T03:58:03;1999.90;;;999.90;;
18933;SDS011;9599;53.706;10.384;2023-06-10T04:00:31;1999.90;;;999.90;;
18933;SDS011;9599;53.706;10.384;2023-06-10T04:03:08;1999.90;;;999.90;;
18933;SDS011;9599;53.706;10.384;2023-06-10T04:05:46;1999.90;;;999.90;;
18933;SDS011;9599;53.706;10.384;2023-06-10T04:08:14;1999.90;;;999.90;;
18933;SDS011;9599;53.706;10.384;2023-06-10T04:10:42;1999.90;;;999.90;;
18933;SDS011;9599;53.706;10.384;2023-06-10T04:13:10;1999.90;;;999.90;;
18933;SDS011;9599;53.706;10.384;2023-06-10T04:15:45;1999.90;;;999.90;;
18933;SDS011;9599;53.706;10.384;2023-06-10T04:18:16;1999.90;;;999.90;;
18933;SDS011;9599;53.706;10.384;2023-06-10T04:20:48;1999.90;;;999.90;;
18933;SDS011;9599;53.706;10.384;2023-06-10T04:23:16;1999.90;;;999.90;;
18933;SDS011;9599;53.706;10.384;2023-06-10T04:25:45;1999.90;;;999.90;;
18933;SDS011;9599;53.706;10.384;2023-06-10T04:28:14;1999.90;;;999.90;;
18933;SDS011;9599;53.706;10.384;2023-06-10T04:30:43;1999.90;;;999.90;;
18933;SDS011;9599;53.706;10.384;2023-06-10T04:33:11;1999.90;;;999.90;;
18933;SDS011;9599;53.706;10.384;2023-06-10T04:35:40;1999.90;;;999.90;;
18933;SDS011;9599;53.706;10.384;2023-06-10T04:38:13;1999.90;;;999.90;;
18933;SDS011;9599;53.706;10.384;2023-06-10T04:40:41;1999.90;;;999.90;;
18933;SDS011;9599;53.706;10.384;2023-06-10T04:43:12;1999.90;;;999.90;;
18933;SDS011;9599;53.706;10.384;2023-06-10T04:45:43;1999.90;;;999.90;;
18933;SDS011;9599;53.706;10.384;2023-06-10T04:48:12;1999.90;;;999.90;;
18933;SDS011;9599;53.706;10.384;2023-06-10T04:50:40;1999.90;;;999.90;;
18933;SDS011;9599;53.706;10.384;2023-06-10T04:53:09;1999.90;;;999.90;;
18933;SDS011;9599;53.706;10.384;2023-06-10T04:55:42;1999.90;;;999.90;;
18933;SDS011;9599;53.706;10.384;2023-06-10T04:58:11;1999.90;;;999.90;;
18933;SDS011;9599;53.706;10.384;2023-06-10T05:00:39;1999.90;;;999.90;;
18933;SDS011;9599;53.706;10.384;2023-06-10T05:03:07;1999.90;;;999.90;;
18933;SDS011;9599;53.706;10.384;2023-06-10T05:05:35;1999.90;;;999.90;;
18933;SDS011;9599;53.706;10.384;2023-06-10T05:08:03;1999.90;;;999.90;;
18933;SDS011;9599;53.706;10.384;2023-06-10T05:10:34;1999.90;;;999.90;;
18933;SDS011;9599;53.706;10.384;2023-06-10T05:13:03;1999.90;;;999.90;;
18933;SDS011;9599;53.706;10.384;2023-06-10T05:15:31;1999.90;;;999.90;;
18933;SDS011;9599;53.706;10.384;2023-06-10T05:17:59;1999.90;;;999.90;;
18933;SDS011;9599;53.706;10.384;2023-06-10T05:20:29;1999.90;;;999.90;;
18933;SDS011;9599;53.706;10.384;2023-06-10T05:22:57;1999.90;;;999.90;;
18933;SDS011;9599;53.706;10.384;2023-06-10T05:25:25;1999.90;;;999.90;;
18933;SDS011;9599;53.706;10.384;2023-06-10T05:27:54;1999.90;;;999.90;;
18933;SDS011;9599;53.706;10.384;2023-06-10T05:30:24;1999.90;;;999.90;;
18933;SDS011;9599;53.706;10.384;2023-06-10T05:32:52;1999.90;;;999.90;;
18933;SDS011;9599;53.706;10.384;2023-06-10T05:35:22;1999.90;;;999.90;;
18933;SDS011;9599;53.706;10.384;2023-06-10T05:37:50;1999.90;;;999.90;;
18933;SDS011;9599;53.706;10.384;2023-06-10T05:40:18;1999.90;;;999.90;;
18933;SDS011;9599;53.706;10.384;2023-06-10T05:42:46;1999.90;;;999.90;;
18933;SDS011;9599;53.706;10.384;2023-06-10T05:45:14;1999.90;;;999.90;;
18933;SDS011;9599;53.706;10.384;2023-06-10T05:47:43;1999.90;;;999.90;;
18933;SDS011;9599;53.706;10.384;2023-06-10T05:50:11;1999.90;;;999.90;;
18933;SDS011;9599;53.706;10.384;2023-06-10T05:52:39;1999.90;;;999.90;;
18933;SDS011;9599;53.706;10.384;2023-06-10T05:55:07;1999.90;;;999.90;;
18933;SDS011;9599;53.706;10.384;2023-06-10T05:57:37;1999.90;;;999.90;;
18933;SDS011;9599;53.706;10.384;2023-06-10T06:00:05;1999.90;;;999.90;;
18933;SDS011;9599;53.706;10.384;2023-06-10T06:02:38;1999.90;;;999.90;;
18933;SDS011;9599;53.706;10.384;2023-06-10T06:05:08;1999.90;;;999.90;;
18933;SDS011;9599;53.706;10.384;2023-06-10T06:07:36;1999.90;;;999.90;;
18933;SDS011;9599;53.706;10.384;2023-06-10T06:10:05;1999.90;;;999.90;;
18933;SDS011;9599;53.706;10.384;2023-06-10T06:12:33;1999.90;;;999.90;;
18933;SDS011;9599;53.706;10.384;2023-06-10T06:15:01;1999.90;;;999.90;;
18933;SDS011;9599;53.706;10.384;2023-06-10T06:17:30;1999.90;;;999.90;;
18933;SDS011;9599;53.706;10.384;2023-06-10T06:19:59;1999.90;;;999.90;;
18933;SDS011;9599;53.706;10.384;2023-06-10T06:22:28;1999.90;;;999.90;;
18933;SDS011;9599;53.706;10.384;2023-06-10T06:24:56;1999.90;;;999.90;;
18933;SDS011;9599;53.706;10.384;2023-06-10T06:27:24;1999.90;;;999.90;;
18933;SDS011;9599;53.706;10.384;2023-06-10T06:29:52;1999.90;;;999.90;;
18933;SDS011;9599;53.706;10.384;2023-06-10T06:32:20;1999.90;;;999.90;;
18933;SDS011;9599;53.706;10.384;2023-06-10T06:34:49;1999.90;;;999.90;;
18933;SDS011;9599;53.706;10.384;2023-06-10T06:37:21;1999.90;;;999.90;;
18933;SDS011;9599;53.706;10.384;2023-06-10T06:39:57;1999.90;;;999.90;;
18933;SDS011;9599;53.706;10.384;2023-06-10T06:42:29;1999.90;;;999.90;;
18933;SDS011;9599;53.706;10.384;2023-06-10T06:45:09;1999.90;;;999.90;;
18933;SDS011;9599;53.706;10.384;2023-06-10T06:47:38;1999.90;;;999.90;;
18933;SDS011;9599;53.706;10.384;2023-06-10T06:50:06;1999.90;;;999.90;;
18933;SDS011;9599;53.706;10.384;2023-06-10T06:52:34;1999.90;;;999.90;;
18933;SDS011;9599;53.706;10.384;2023-06-10T06:55:04;1999.90;;;999.90;;
18933;SDS011;9599;53.706;10.384;2023-06-10T06:57:33;1999.90;;;999.90;;
18933;SDS011;9599;53.706;10.384;2023-06-10T07:00:01;1999.90;;;999.90;;
18933;SDS011;9599;53.706;10.384;2023-06-10T07:02:30;1999.90;;;999.90;;
18933;SDS011;9599;53.706;10.384;2023-06-10T07:04:59;1999.90;;;999.90;;
18933;SDS011;9599;53.706;10.384;2023-06-10T07:07:27;1999.90;;;999.90;;
18933;SDS011;9599;53.706;10.384;2023-06-10T07:09:55;1999.90;;;999.90;;
18933;SDS011;9599;53.706;10.384;2023-06-10T07:12:26;1999.90;;;999.90;;
18933;SDS011;9599;53.706;10.384;2023-06-10T07:14:56;1999.90;;;999.90;;
18933;SDS011;9599;53.706;10.384;2023-06-10T07:17:24;1999.90;;;999.90;;
18933;SDS011;9599;53.706;10.384;2023-06-10T07:19:53;1999.90;;;999.90;;
18933;SDS011;9599;53.706;10.384;2023-06-10T07:22:23;1999.90;;;999.90;;
18933;SDS011;9599;53.706;10.384;2023-06-10T07:24:51;1999.90;;;999.90;;
18933;SDS011;9599;53.706;10.384;2023-06-10T07:27:21;1999.90;;;999.90;;
18933;SDS011;9599;53.706;10.384;2023-06-10T07:29:50;1999.90;;;999.90;;
18933;SDS011;9599;53.706;10.384;2023-06-10T07:32:18;1999.90;;;999.90;;
18933;SDS011;9599;53.706;10.384;2023-06-10T07:34:48;1999.90;;;999.90;;
18933;SDS011;9599;53.706;10.384;2023-06-10T07:37:16;1999.90;;;999.90;;
18933;SDS011;9599;53.706;10.384;2023-06-10T07:39:45;1999.90;;;999.90;;
18933;SDS011;9599;53.706;10.384;2023-06-10T07:42:13;1999.90;;;999.90;;
18933;SDS011;9599;53.706;10.384;2023-06-10T07:44:42;1999.90;;;999.90;;
18933;SDS011;9599;53.706;10.384;2023-06-10T07:47:12;1999.90;;;999.90;;
18933;SDS011;9599;53.706;10.384;2023-06-10T07:49:40;1999.90;;;999.90;;
18933;SDS011;9599;53.706;10.384;2023-06-10T07:52:08;1999.90;;;999.90;;
18933;SDS011;9599;53.706;10.384;2023-06-10T07:54:36;1999.90;;;999.90;;
18933;SDS011;9599;53.706;10.384;2023-06-10T07:57:04;1999.90;;;999.90;;
18933;SDS011;9599;53.706;10.384;2023-06-10T07:59:33;1999.90;;;999.90;;
18933;SDS011;9599;53.706;10.384;2023-06-10T08:02:01;1999.90;;;999.90;;
18933;SDS011;9599;53.706;10.384;2023-06-10T08:04:30;1999.90;;;999.90;;
18933;SDS011;9599;53.706;10.384;2023-06-10T08:07:01;1999.90;;;999.90;;
18933;SDS011;9599;53.706;10.384;2023-06-10T08:09:29;1999.90;;;999.90;;
18933;SDS011;9599;53.706;10.384;2023-06-10T08:11:57;1999.90;;;999.90;;
18933;SDS011;9599;53.706;10.384;2023-06-10T08:14:26;1999.90;;;999.90;;
18933;SDS011;9599;53.706;10.384;2023-06-10T08:16:54;1999.90;;;999.90;;
18933;SDS011;9599;53.706;10.384;2023-06-10T08:19:22;1999.90;;;999.90;;
18933;SDS011;9599;53.706;10.384;2023-06-10T08:21:51;1999.90;;;999.90;;
18933;SDS011;9599;53.706;10.384;2023-06-10T08:24:19;1999.90;;;999.90;;
18933;SDS011;9599;53.706;10.384;2023-06-10T08:26:47;1999.90;;;999.90;;
18933;SDS011;9599;53.706;10.384;2023-06-10T08:29:15;1999.90;;;999.90;;
18933;SDS011;9599;53.706;10.384;2023-06-10T08:31:43;1999.90;;;999.90;;
18933;SDS011;9599;53.706;10.384;2023-06-10T08:34:11;1999.90;;;999.90;;
18933;SDS011;9599;53.706;10.384;2023-06-10T08:36:39;1999.90;;;999.90;;
18933;SDS011;9599;53.706;10.384;2023-06-10T08:39:08;1999.90;;;999.90;;
18933;SDS011;9599;53.706;10.384;2023-06-10T08:41:37;1999.90;;;999.90;;
18933;SDS011;9599;53.706;10.384;2023-06-10T08:44:10;1999.90;;;999.90;;
18933;SDS011;9599;53.706;10.384;2023-06-10T08:46:45;1999.90;;;999.90;;
18933;SDS011;9599;53.706;10.384;2023-06-10T08:49:17;1999.90;;;999.90;;
18933;SDS011;9599;53.706;10.384;2023-06-10T08:51:47;1999.90;;;999.90;;
18933;SDS011;9599;53.706;10.384;2023-06-10T08:54:20;1999.90;;;999.90;;
18933;SDS011;9599;53.706;10.384;2023-06-10T08:56:49;1999.90;;;999.90;;
18933;SDS011;9599;53.706;10.384;2023-06-10T08:59:18;1999.90;;;999.90;;
18933;SDS011;9599;53.706;10.384;2023-06-10T09:01:48;1999.90;;;999.90;;
18933;SDS011;9599;53.706;10.384;2023-06-10T09:04:17;1999.90;;;999.90;;
18933;SDS011;9599;53.706;10.384;2023-06-10T09:06:46;1999.90;;;999.90;;
18933;SDS011;9599;53.706;10.384;2023-06-10T09:09:16;1999.90;;;999.90;;
18933;SDS011;9599;53.706;10.384;2023-06-10T09:11:47;1999.90;;;999.90;;
18933;SDS011;9599;53.706;10.384;2023-06-10T09:14:16;1999.90;;;999.90;;
18933;SDS011;9599;53.706;10.384;2023-06-10T09:16:44;1999.90;;;999.90;;
18933;SDS011;9599;53.706;10.384;2023-06-10T09:19:13;1999.90;;;999.90;;
18933;SDS011;9599;53.706;10.384;2023-06-10T09:21:42;1999.90;;;999.90;;
18933;SDS011;9599;53.706;10.384;2023-06-10T09:24:10;1999.90;;;999.90;;
18933;SDS011;9599;53.706;10.384;2023-06-10T09:26:38;1999.90;;;999.90;;
18933;SDS011;9599;53.706;10.384;2023-06-10T09:29:08;1999.90;;;999.90;;
18933;SDS011;9599;53.706;10.384;2023-06-10T09:31:38;1999.90;;;999.90;;
18933;SDS011;9599;53.706;10.384;2023-06-10T09:34:07;1999.90;;;999.90;;
18933;SDS011;9599;53.706;10.384;2023-06-10T09:36:36;1999.90;;;999.90;;
18933;SDS011;9599;53.706;10.384;2023-06-10T09:39:13;1999.90;;;999.90;;
18933;SDS011;9599;53.706;10.384;2023-06-10T09:41:42;1999.90;;;999.90;;
18933;SDS011;9599;53.706;10.384;2023-06-10T09:44:13;1999.90;;;999.90;;
18933;SDS011;9599;53.706;10.384;2023-06-10T09:46:42;1999.90;;;999.90;;
18933;SDS011;9599;53.706;10.384;2023-06-10T09:49:12;1999.90;;;999.90;;
18933;SDS011;9599;53.706;10.384;2023-06-10T09:51:48;1999.90;;;999.90;;
18933;SDS011;9599;53.706;10.384;2023-06-10T09:54:17;1999.90;;;999.90;;
18933;SDS011;9599;53.706;10.384;2023-06-10T09:56:46;1999.90;;;999.90;;
18933;SDS011;9599;53.706;10.384;2023-06-10T09:59:16;1999.90;;;999.90;;
18933;SDS011;9599;53.706;10.384;2023-06-10T10:01:55;1999.90;;;999.90;;
18933;SDS011;9599;53.706;10.384;2023-06-10T10:04:23;1999.90;;;999.90;;
18933;SDS011;9599;53.706;10.384;2023-06-10T10:06:52;1999.90;;;999.90;;
18933;SDS011;9599;53.706;10.384;2023-06-10T10:09:20;1999.90;;;999.90;;
18933;SDS011;9599;53.706;10.384;2023-06-10T10:11:48;1999.90;;;999.90;;
18933;SDS011;9599;53.706;10.384;2023-06-10T10:14:18;1999.90;;;999.90;;
18933;SDS011;9599;53.706;10.384;2023-06-10T10:16:47;1999.90;;;999.90;;
18933;SDS011;9599;53.706;10.384;2023-06-10T10:19:17;1999.90;;;999.90;;
18933;SDS011;9599;53.706;10.384;2023-06-10T10:21:53;1999.90;;;999.90;;
18933;SDS011;9599;53.706;10.384;2023-06-10T10:24:25;1999.90;;;999.90;;
18933;SDS011;9599;53.706;10.384;2023-06-10T10:26:58;1999.90;;;999.90;;
18933;SDS011;9599;53.706;10.384;2023-06-10T10:29:30;1999.90;;;999.90;;
18933;SDS011;9599;53.706;10.384;2023-06-10T10:32:03;1999.90;;;999.90;;
18933;SDS011;9599;53.706;10.384;2023-06-10T10:34:34;1999.90;;;999.90;;
18933;SDS011;9599;53.706;10.384;2023-06-10T10:37:07;1999.90;;;999.90;;
18933;SDS011;9599;53.706;10.384;2023-06-10T10:39:35;1999.90;;;999.90;;
18933;SDS011;9599;53.706;10.384;2023-06-10T10:42:04;1999.90;;;999.90;;
18933;SDS011;9599;53.706;10.384;2023-06-10T10:44:37;1999.90;;;999.90;;
18933;SDS011;9599;53.706;10.384;2023-06-10T10:47:07;1999.90;;;999.90;;
18933;SDS011;9599;53.706;10.384;2023-06-10T10:49:37;1999.90;;;999.90;;
18933;SDS011;9599;53.706;10.384;2023-06-10T10:52:09;1999.90;;;999.90;;
18933;SDS011;9599;53.706;10.384;2023-06-10T10:54:43;1999.90;;;999.90;;
18933;SDS011;9599;53.706;10.384;2023-06-10T10:57:13;1999.90;;;999.90;;
18933;SDS011;9599;53.706;10.384;2023-06-10T10:59:44;1999.90;;;999.90;;
18933;SDS011;9599;53.706;10.384;2023-06-10T11:02:37;1999.90;;;999.90;;
18933;SDS011;9599;53.706;10.384;2023-06-10T11:05:10;1999.90;;;999.90;;
18933;SDS011;9599;53.706;10.384;2023-06-10T11:07:51;1999.90;;;999.90;;
18933;SDS011;9599;53.706;10.384;2023-06-10T11:10:28;1999.90;;;999.90;;
18933;SDS011;9599;53.706;10.384;2023-06-10T11:12:57;1999.90;;;999.90;;
18933;SDS011;9599;53.706;10.384;2023-06-10T11:15:27;1999.90;;;999.90;;
18933;SDS011;9599;53.706;10.384;2023-06-10T11:18:09;1999.90;;;999.90;;
18933;SDS011;9599;53.706;10.384;2023-06-10T11:20:50;1999.90;;;999.90;;
18933;SDS011;9599;53.706;10.384;2023-06-10T11:23:39;1999.90;;;999.90;;
18933;SDS011;9599;53.706;10.384;2023-06-10T11:26:13;1999.90;;;999.90;;
18933;SDS011;9599;53.706;10.384;2023-06-10T11:31:45;1999.90;;;999.90;;
18933;SDS011;9599;53.706;10.384;2023-06-10T11:34:23;1999.90;;;999.90;;
18933;SDS011;9599;53.706;10.384;2023-06-10T11:36:53;1999.90;;;999.90;;
18933;SDS011;9599;53.706;10.384;2023-06-10T11:39:21;1999.90;;;999.90;;
18933;SDS011;9599;53.706;10.384;2023-06-10T11:41:52;1999.90;;;999.90;;
18933;SDS011;9599;53.706;10.384;2023-06-10T11:44:21;1999.90;;;999.90;;
18933;SDS011;9599;53.706;10.384;2023-06-10T11:46:56;1999.90;;;999.90;;
18933;SDS011;9599;53.706;10.384;2023-06-10T11:49:24;1999.90;;;999.90;;
18933;SDS011;9599;53.706;10.384;2023-06-10T11:51:52;1999.90;;;999.90;;
18933;SDS011;9599;53.706;10.384;2023-06-10T11:54:20;1999.90;;;999.90;;
18933;SDS011;9599;53.706;10.384;2023-06-10T11:56:48;1999.90;;;999.90;;
18933;SDS011;9599;53.706;10.384;2023-06-10T11:59:16;1999.90;;;999.90;;
18933;SDS011;9599;53.706;10.384;2023-06-10T12:01:44;1999.90;;;999.90;;
18933;SDS011;9599;53.706;10.384;2023-06-10T12:04:15;1999.90;;;999.90;;
18933;SDS011;9599;53.706;10.384;2023-06-10T12:06:46;1999.90;;;999.90;;
18933;SDS011;9599;53.706;10.384;2023-06-10T12:09:15;1999.90;;;999.90;;
18933;SDS011;9599;53.706;10.384;2023-06-10T12:11:53;1999.90;;;999.90;;
18933;SDS011;9599;53.706;10.384;2023-06-10T12:17:22;1999.90;;;999.90;;
18933;SDS011;9599;53.706;10.384;2023-06-10T12:20:05;1999.90;;;999.90;;
18933;SDS011;9599;53.706;10.384;2023-06-10T12:22:38;1999.90;;;999.90;;
18933;SDS011;9599;53.706;10.384;2023-06-10T12:25:08;1999.90;;;999.90;;
18933;SDS011;9599;53.706;10.384;2023-06-10T12:27:38;1999.90;;;999.90;;
18933;SDS011;9599;53.706;10.384;2023-06-10T12:30:07;1999.90;;;999.90;;
18933;SDS011;9599;53.706;10.384;2023-06-10T12:32:36;1999.90;;;999.90;;
18933;SDS011;9599;53.706;10.384;2023-06-10T12:35:11;1999.90;;;999.90;;
18933;SDS011;9599;53.706;10.384;2023-06-10T12:37:40;1999.90;;;999.90;;
18933;SDS011;9599;53.706;10.384;2023-06-10T12:40:09;1999.90;;;999.90;;
18933;SDS011;9599;53.706;10.384;2023-06-10T12:42:38;1999.90;;;999.90;;
18933;SDS011;9599;53.706;10.384;2023-06-10T12:45:08;1999.90;;;999.90;;
18933;SDS011;9599;53.706;10.384;2023-06-10T12:47:37;1999.90;;;999.90;;
18933;SDS011;9599;53.706;10.384;2023-06-10T12:50:06;1999.90;;;999.90;;
18933;SDS011;9599;53.706;10.384;2023-06-10T12:52:36;330.90;;;304.00;;
18933;SDS011;9599;53.706;10.384;2023-06-10T12:55:05;171.02;;;160.10;;
18933;SDS011;9599;53.706;10.384;2023-06-10T12:57:33;135.57;;;121.53;;
18933;SDS011;9599;53.706;10.384;2023-06-10T13:00:01;118.47;;;107.27;;
18933;SDS011;9599;53.706;10.384;2023-06-10T13:02:34;922.27;;;738.50;;
18933;SDS011;9599;53.706;10.384;2023-06-10T13:05:02;676.37;;;601.00;;
18933;SDS011;9599;53.706;10.384;2023-06-10T13:07:31;873.87;;;656.70;;
18933;SDS011;9599;53.706;10.384;2023-06-10T13:10:00;681.73;;;530.17;;
18933;SDS011;9599;53.706;10.384;2023-06-10T13:12:28;506.23;;;450.00;;
18933;SDS011;9599;53.706;10.384;2023-06-10T13:15:11;546.97;;;492.33;;
18933;SDS011;9599;53.706;10.384;2023-06-10T13:17:41;595.33;;;532.80;;
18933;SDS011;9599;53.706;10.384;2023-06-10T13:20:10;101.13;;;89.73;;
18933;SDS011;9599;53.706;10.384;2023-06-10T13:22:38;762.07;;;699.23;;
18933;SDS011;9599;53.706;10.384;2023-06-10T13:25:07;643.43;;;583.30;;
18933;SDS011;9599;53.706;10.384;2023-06-10T13:27:37;713.40;;;639.93;;
18933;SDS011;9599;53.706;10.384;2023-06-10T13:30:06;587.20;;;522.63;;
18933;SDS011;9599;53.706;10.384;2023-06-10T13:32:35;720.37;;;645.27;;
18933;SDS011;9599;53.706;10.384;2023-06-10T13:35:03;193.97;;;180.67;;
18933;SDS011;9599;53.706;10.384;2023-06-10T13:37:32;147.77;;;137.17;;
18933;SDS011;9599;53.706;10.384;2023-06-10T13:40:01;225.97;;;201.73;;
18933;SDS011;9599;53.706;10.384;2023-06-10T13:42:30;165.60;;;155.10;;
18933;SDS011;9599;53.706;10.384;2023-06-10T13:44:58;183.37;;;170.73;;
18933;SDS011;9599;53.706;10.384;2023-06-10T13:47:26;232.23;;;216.87;;
18933;SDS011;9599;53.706;10.384;2023-06-10T13:49:54;226.33;;;211.93;;
18933;SDS011;9599;53.706;10.384;2023-06-10T13:52:22;231.13;;;216.97;;
18933;SDS011;9599;53.706;10.384;2023-06-10T13:54:50;230.70;;;209.90;;
18933;SDS011;9599;53.706;10.384;2023-06-10T13:57:18;188.57;;;176.10;;
18933;SDS011;9599;53.706;10.384;2023-06-10T13:59:47;187.03;;;174.87;;
18933;SDS011;9599;53.706;10.384;2023-06-10T14:02:15;173.07;;;161.30;;
18933;SDS011;9599;53.706;10.384;2023-06-10T14:04:43;503.90;;;441.13;;
18933;SDS011;9599;53.706;10.384;2023-06-10T14:07:11;137.60;;;129.57;;
18933;SDS011;9599;53.706;10.384;2023-06-10T14:09:39;179.90;;;165.50;;